sensor_id;sensor_type;location;lat;lon;timestamp;pressure;altitude;pressure_sealevel;temperature;humidity
56040;BME280;43937;41.366;2.072;2022-11-11T00:08:31;101961.34;;;15.85;72.31
56040;BME280;43937;41.366;2.072;2022-11-11T00:16:19;101967.88;;;15.76;72.99
56040;BME280;43937;41.366;2.072;2022-11-11T00:18:45;101949.34;;;15.78;72.27
56040;BME280;43937;41.366;2.072;2022-11-11T00:21:33;101947.63;;;15.93;73.42
56040;BME280;43937;41.366;2.072;2022-11-11T00:24:46;101955.88;;;16.01;73.56
56040;BME280;43937;41.366;2.072;2022-11-11T00:31:06;101957.44;;;16.04;74.83
56040;BME280;43937;41.366;2.072;2022-11-11T00:40:33;101941.09;;;15.70;79.20
56040;BME280;43937;41.366;2.072;2022-11-11T00:43:38;101960.63;;;15.67;81.83
56040;BME280;43937;41.366;2.072;2022-11-11T00:49:34;101941.78;;;15.55;82.28
56040;BME280;43937;41.366;2.072;2022-11-11T00:55:00;101954.97;;;15.44;85.26
56040;BME280;43937;41.366;2.072;2022-11-11T00:58:15;101960.94;;;15.39;86.62
56040;BME280;43937;41.366;2.072;2022-11-11T01:15:26;101950.03;;;14.97;92.24
56040;BME280;43937;41.366;2.072;2022-11-11T01:17:51;101957.78;;;15.01;92.86
56040;BME280;43937;41.366;2.072;2022-11-11T01:20:17;101959.47;;;15.02;93.12
56040;BME280;43937;41.366;2.072;2022-11-11T01:28:16;101935.41;;;14.80;95.54
56040;BME280;43937;41.366;2.072;2022-11-11T01:38:52;101930.59;;;14.74;98.76
56040;BME280;43937;41.366;2.072;2022-11-11T01:41:20;101933.50;;;14.72;98.67
56040;BME280;43937;41.366;2.072;2022-11-11T01:44:00;101935.75;;;14.77;98.38
56040;BME280;43937;41.366;2.072;2022-11-11T01:50:37;101947.00;;;14.65;99.14
56040;BME280;43937;41.366;2.072;2022-11-11T01:53:48;101921.22;;;14.50;98.65
56040;BME280;43937;41.366;2.072;2022-11-11T01:57:14;101928.28;;;14.61;98.31
56040;BME280;43937;41.366;2.072;2022-11-11T02:06:13;101908.16;;;14.44;97.99
56040;BME280;43937;41.366;2.072;2022-11-11T02:08:38;101924.94;;;14.49;96.97
56040;BME280;43937;41.366;2.072;2022-11-11T02:11:45;101925.78;;;14.41;97.15
56040;BME280;43937;41.366;2.072;2022-11-11T02:15:28;101907.59;;;14.32;96.11
56040;BME280;43937;41.366;2.072;2022-11-11T02:17:53;101922.84;;;14.43;96.04
56040;BME280;43937;41.366;2.072;2022-11-11T02:24:08;101907.72;;;14.31;95.22
56040;BME280;43937;41.366;2.072;2022-11-11T02:27:14;101902.09;;;14.32;94.79
56040;BME280;43937;41.366;2.072;2022-11-11T02:36:13;101891.03;;;14.42;92.55
56040;BME280;43937;41.366;2.072;2022-11-11T02:38:39;101906.50;;;14.51;92.54
56040;BME280;43937;41.366;2.072;2022-11-11T02:41:56;101901.72;;;14.53;91.56
56040;BME280;43937;41.366;2.072;2022-11-11T02:46:05;101903.66;;;14.35;90.13
56040;BME280;43937;41.366;2.072;2022-11-11T02:56:27;101897.69;;;14.39;88.66
56040;BME280;43937;41.366;2.072;2022-11-11T03:00:42;101880.00;;;14.26;87.66
56040;BME280;43937;41.366;2.072;2022-11-11T03:03:08;101906.28;;;14.44;87.59
56040;BME280;43937;41.366;2.072;2022-11-11T03:06:31;101885.88;;;14.39;87.51
56040;BME280;43937;41.366;2.072;2022-11-11T03:08:57;101902.69;;;14.44;86.65
56040;BME280;43937;41.366;2.072;2022-11-11T03:11:22;101905.75;;;14.49;85.51
56040;BME280;43937;41.366;2.072;2022-11-11T03:14:29;101906.31;;;14.87;82.59
56040;BME280;43937;41.366;2.072;2022-11-11T03:18:56;101903.81;;;14.59;83.45
56040;BME280;43937;41.366;2.072;2022-11-11T03:23:44;101908.34;;;14.51;83.83
56040;BME280;43937;41.366;2.072;2022-11-11T03:26:10;101896.69;;;14.49;83.82
56040;BME280;43937;41.366;2.072;2022-11-11T03:28:35;101891.72;;;14.44;84.28
56040;BME280;43937;41.366;2.072;2022-11-11T03:31:00;101890.88;;;14.43;84.15
56040;BME280;43937;41.366;2.072;2022-11-11T03:34:28;101907.59;;;14.32;85.16
56040;BME280;43937;41.366;2.072;2022-11-11T03:37:54;101894.47;;;14.44;85.12
56040;BME280;43937;41.366;2.072;2022-11-11T03:50:38;101883.44;;;14.02;89.64
56040;BME280;43937;41.366;2.072;2022-11-11T03:56:53;101896.53;;;13.90;91.46
56040;BME280;43937;41.366;2.072;2022-11-11T03:59:38;101897.72;;;13.87;91.21
56040;BME280;43937;41.366;2.072;2022-11-11T04:04:49;101899.00;;;14.01;91.42
56040;BME280;43937;41.366;2.072;2022-11-11T04:09:07;101897.47;;;13.98;91.28
56040;BME280;43937;41.366;2.072;2022-11-11T04:12:43;101911.81;;;14.01;91.46
56040;BME280;43937;41.366;2.072;2022-11-11T04:15:28;101909.41;;;13.97;91.34
56040;BME280;43937;41.366;2.072;2022-11-11T04:22:21;101913.06;;;14.06;91.31
56040;BME280;43937;41.366;2.072;2022-11-11T04:28:50;101916.47;;;13.82;92.50
56040;BME280;43937;41.366;2.072;2022-11-11T04:31:59;101914.56;;;13.74;93.44
56040;BME280;43937;41.366;2.072;2022-11-11T04:37:48;101917.66;;;13.80;93.49
56040;BME280;43937;41.366;2.072;2022-11-11T04:41:18;101918.69;;;13.79;93.05
56040;BME280;43937;41.366;2.072;2022-11-11T04:48:09;101921.50;;;13.69;94.50
56040;BME280;43937;41.366;2.072;2022-11-11T04:52:48;101919.63;;;13.69;94.48
56040;BME280;43937;41.366;2.072;2022-11-11T04:55:14;101910.50;;;13.61;94.46
56040;BME280;43937;41.366;2.072;2022-11-11T05:01:48;101905.81;;;13.53;95.09
56040;BME280;43937;41.366;2.072;2022-11-11T05:04:31;101918.88;;;13.59;94.52
56040;BME280;43937;41.366;2.072;2022-11-11T05:11:47;101919.09;;;13.48;95.70
56040;BME280;43937;41.366;2.072;2022-11-11T05:19:01;101902.47;;;13.41;95.81
56040;BME280;43937;41.366;2.072;2022-11-11T05:26:00;101901.44;;;13.42;95.85
56040;BME280;43937;41.366;2.072;2022-11-11T05:29:51;101923.94;;;13.54;96.17
56040;BME280;43937;41.366;2.072;2022-11-11T05:34:19;101937.63;;;13.54;95.93
56040;BME280;43937;41.366;2.072;2022-11-11T05:36:44;101941.22;;;13.55;96.74
56040;BME280;43937;41.366;2.072;2022-11-11T05:39:56;101923.53;;;13.49;96.51
56040;BME280;43937;41.366;2.072;2022-11-11T05:43:42;101918.97;;;13.49;96.27
56040;BME280;43937;41.366;2.072;2022-11-11T05:46:43;101915.34;;;13.49;96.69
56040;BME280;43937;41.366;2.072;2022-11-11T05:49:08;101914.72;;;13.55;96.26
56040;BME280;43937;41.366;2.072;2022-11-11T05:56:30;101926.38;;;13.57;95.30
56040;BME280;43937;41.366;2.072;2022-11-11T05:58:55;101927.06;;;13.59;94.79
56040;BME280;43937;41.366;2.072;2022-11-11T06:14:23;101924.44;;;13.32;94.76
56040;BME280;43937;41.366;2.072;2022-11-11T06:16:48;101931.13;;;13.37;94.25
56040;BME280;43937;41.366;2.072;2022-11-11T06:20:05;101928.16;;;13.31;94.77
56040;BME280;43937;41.366;2.072;2022-11-11T06:25:53;101944.56;;;13.31;95.07
56040;BME280;43937;41.366;2.072;2022-11-11T06:28:41;101937.69;;;13.26;95.35
56040;BME280;43937;41.366;2.072;2022-11-11T06:34:02;101939.13;;;13.21;95.57
56040;BME280;43937;41.366;2.072;2022-11-11T06:57:53;101947.00;;;13.69;93.74
56040;BME280;43937;41.366;2.072;2022-11-11T07:01:21;101959.19;;;13.75;93.22
56040;BME280;43937;41.366;2.072;2022-11-11T07:07:18;101968.34;;;13.84;92.02
56040;BME280;43937;41.366;2.072;2022-11-11T07:11:03;101970.25;;;13.91;92.01
56040;BME280;43937;41.366;2.072;2022-11-11T07:16:54;101974.25;;;13.97;90.92
56040;BME280;43937;41.366;2.072;2022-11-11T07:19:19;101973.16;;;13.90;90.73
56040;BME280;43937;41.366;2.072;2022-11-11T07:23:29;101978.56;;;14.00;89.89
56040;BME280;43937;41.366;2.072;2022-11-11T07:30:43;101979.88;;;14.13;89.07
56040;BME280;43937;41.366;2.072;2022-11-11T07:33:08;101977.47;;;14.18;88.36
56040;BME280;43937;41.366;2.072;2022-11-11T07:38:34;101979.81;;;14.31;86.83
56040;BME280;43937;41.366;2.072;2022-11-11T07:44:03;101979.00;;;14.39;86.09
56040;BME280;43937;41.366;2.072;2022-11-11T07:47:54;101988.03;;;14.57;85.24
56040;BME280;43937;41.366;2.072;2022-11-11T07:50:20;101993.31;;;14.77;84.30
56040;BME280;43937;41.366;2.072;2022-11-11T07:52:49;102000.38;;;14.87;84.26
56040;BME280;43937;41.366;2.072;2022-11-11T07:58:02;102001.66;;;15.09;82.69
56040;BME280;43937;41.366;2.072;2022-11-11T08:00:27;102013.69;;;15.25;82.10
56040;BME280;43937;41.366;2.072;2022-11-11T08:07:09;102017.41;;;15.66;79.85
56040;BME280;43937;41.366;2.072;2022-11-11T08:11:27;102028.81;;;15.79;78.90
56040;BME280;43937;41.366;2.072;2022-11-11T08:17:15;102040.34;;;16.16;76.97
56040;BME280;43937;41.366;2.072;2022-11-11T08:23:01;102046.78;;;19.18;65.88
56040;BME280;43937;41.366;2.072;2022-11-11T08:26:05;102031.16;;;21.04;58.95
56040;BME280;43937;41.366;2.072;2022-11-11T08:28:32;102037.94;;;20.95;58.06
56040;BME280;43937;41.366;2.072;2022-11-11T08:36:13;102054.59;;;20.02;60.04
56040;BME280;43937;41.366;2.072;2022-11-11T08:41:46;102067.69;;;18.07;67.02
56040;BME280;43937;41.366;2.072;2022-11-11T08:44:33;102075.28;;;17.74;68.53
56040;BME280;43937;41.366;2.072;2022-11-11T08:50:05;102083.91;;;17.79;69.97
56040;BME280;43937;41.366;2.072;2022-11-11T08:54:03;102084.63;;;17.96;69.79
56040;BME280;43937;41.366;2.072;2022-11-11T08:56:28;102071.97;;;18.10;69.58
56040;BME280;43937;41.366;2.072;2022-11-11T09:08:36;102068.59;;;18.46;67.79
56040;BME280;43937;41.366;2.072;2022-11-11T09:11:41;102085.25;;;18.52;68.06
56040;BME280;43937;41.366;2.072;2022-11-11T09:14:07;102093.53;;;18.29;68.49
56040;BME280;43937;41.366;2.072;2022-11-11T09:17:29;102080.94;;;18.50;68.12
56040;BME280;43937;41.366;2.072;2022-11-11T09:21:05;102092.09;;;18.94;67.21
56040;BME280;43937;41.366;2.072;2022-11-11T09:31:17;102107.09;;;19.51;65.53
56040;BME280;43937;41.366;2.072;2022-11-11T09:33:42;102104.31;;;19.81;65.91
56040;BME280;43937;41.366;2.072;2022-11-11T09:38:28;102116.19;;;19.96;64.51
56040;BME280;43937;41.366;2.072;2022-11-11T09:48:46;102136.03;;;20.43;62.99
56040;BME280;43937;41.366;2.072;2022-11-11T09:59:59;102140.22;;;21.10;63.97
56040;BME280;43937;41.366;2.072;2022-11-11T10:02:45;102142.38;;;21.14;63.13
56040;BME280;43937;41.366;2.072;2022-11-11T10:05:15;102151.75;;;21.41;62.26
56040;BME280;43937;41.366;2.072;2022-11-11T10:14:35;102138.03;;;20.98;63.24
56040;BME280;43937;41.366;2.072;2022-11-11T10:19:56;102151.56;;;21.43;61.85
56040;BME280;43937;41.366;2.072;2022-11-11T10:25:18;102137.81;;;21.35;57.51
56040;BME280;43937;41.366;2.072;2022-11-11T10:27:47;102134.38;;;21.26;56.91
56040;BME280;43937;41.366;2.072;2022-11-11T10:40:49;102134.53;;;21.46;57.92
56040;BME280;43937;41.366;2.072;2022-11-11T10:56:51;102115.34;;;21.51;66.63
56040;BME280;43937;41.366;2.072;2022-11-11T11:01:24;102114.69;;;21.42;66.99
56040;BME280;43937;41.366;2.072;2022-11-11T11:15:20;102099.53;;;21.03;67.47
56040;BME280;43937;41.366;2.072;2022-11-11T11:19:20;102122.47;;;21.32;66.17
56040;BME280;43937;41.366;2.072;2022-11-11T11:27:32;102086.59;;;21.17;65.51
56040;BME280;43937;41.366;2.072;2022-11-11T11:40:06;102118.34;;;20.87;64.66
56040;BME280;43937;41.366;2.072;2022-11-11T11:42:34;102116.28;;;20.95;64.11
56040;BME280;43937;41.366;2.072;2022-11-11T11:54:14;102107.22;;;21.15;67.48
56040;BME280;43937;41.366;2.072;2022-11-11T12:00:04;102091.13;;;21.25;67.85
56040;BME280;43937;41.366;2.072;2022-11-11T12:30:23;102078.56;;;21.29;70.38
56040;BME280;43937;41.366;2.072;2022-11-11T12:33:30;102092.22;;;20.96;69.04
56040;BME280;43937;41.366;2.072;2022-11-11T12:47:35;102049.03;;;21.01;70.77
56040;BME280;43937;41.366;2.072;2022-11-11T12:50:22;102060.66;;;21.25;70.89
56040;BME280;43937;41.366;2.072;2022-11-11T13:11:10;102026.59;;;21.31;80.89
56040;BME280;43937;41.366;2.072;2022-11-11T13:16:40;102025.13;;;21.35;81.50
56040;BME280;43937;41.366;2.072;2022-11-11T13:24:03;102004.88;;;21.28;81.24
56040;BME280;43937;41.366;2.072;2022-11-11T13:37:46;102001.06;;;21.36;82.02
56040;BME280;43937;41.366;2.072;2022-11-11T13:41:37;102000.41;;;21.34;82.73
56040;BME280;43937;41.366;2.072;2022-11-11T13:44:07;101979.16;;;21.41;82.85
56040;BME280;43937;41.366;2.072;2022-11-11T13:48:31;101985.66;;;21.20;82.55
56040;BME280;43937;41.366;2.072;2022-11-11T13:51:11;101992.16;;;21.40;81.17
56040;BME280;43937;41.366;2.072;2022-11-11T13:53:40;101978.44;;;21.32;80.60
56040;BME280;43937;41.366;2.072;2022-11-11T14:14:56;101977.06;;;21.63;76.78
56040;BME280;43937;41.366;2.072;2022-11-11T14:18:53;101961.69;;;21.40;76.80
56040;BME280;43937;41.366;2.072;2022-11-11T14:22:42;101972.78;;;21.47;78.01
56040;BME280;43937;41.366;2.072;2022-11-11T14:25:20;101968.72;;;21.43;78.38
56040;BME280;43937;41.366;2.072;2022-11-11T14:27:48;101976.84;;;21.51;77.50
56040;BME280;43937;41.366;2.072;2022-11-11T14:30:36;101963.22;;;21.49;77.74
56040;BME280;43937;41.366;2.072;2022-11-11T14:33:26;101960.84;;;21.46;77.69
56040;BME280;43937;41.366;2.072;2022-11-11T14:36:28;101964.47;;;21.54;77.65
56040;BME280;43937;41.366;2.072;2022-11-11T14:51:58;101972.59;;;21.62;78.47
56040;BME280;43937;41.366;2.072;2022-11-11T14:55:57;101980.25;;;21.60;78.87
56040;BME280;43937;41.366;2.072;2022-11-11T14:58:32;101970.72;;;21.76;78.66
56040;BME280;43937;41.366;2.072;2022-11-11T15:05:15;101971.78;;;21.81;77.72
56040;BME280;43937;41.366;2.072;2022-11-11T15:10:29;101961.09;;;21.52;78.54
56040;BME280;43937;41.366;2.072;2022-11-11T15:25:00;101976.47;;;21.67;78.34
56040;BME280;43937;41.366;2.072;2022-11-11T15:37:25;101969.88;;;21.14;81.02
56040;BME280;43937;41.366;2.072;2022-11-11T15:39:53;101967.69;;;21.02;82.07
56040;BME280;43937;41.366;2.072;2022-11-11T15:45:25;101943.78;;;20.88;83.57
56040;BME280;43937;41.366;2.072;2022-11-11T15:50:03;101920.88;;;20.66;85.82
56040;BME280;43937;41.366;2.072;2022-11-11T15:55:22;101972.44;;;20.74;86.48
56040;BME280;43937;41.366;2.072;2022-11-11T15:58:31;101978.03;;;20.87;86.01
56040;BME280;43937;41.366;2.072;2022-11-11T16:02:20;101978.75;;;21.02;84.54
56040;BME280;43937;41.366;2.072;2022-11-11T16:12:09;101976.69;;;20.70;88.23
56040;BME280;43937;41.366;2.072;2022-11-11T16:19:53;101968.41;;;20.48;90.10
56040;BME280;43937;41.366;2.072;2022-11-11T16:23:14;101975.41;;;20.44;91.14
56040;BME280;43937;41.366;2.072;2022-11-11T16:25:40;101974.16;;;20.47;91.03
56040;BME280;43937;41.366;2.072;2022-11-11T16:28:15;101979.44;;;20.42;92.41
56040;BME280;43937;41.366;2.072;2022-11-11T16:46:15;101970.34;;;20.20;97.92
56040;BME280;43937;41.366;2.072;2022-11-11T16:48:44;101981.78;;;20.17;99.52
56040;BME280;43937;41.366;2.072;2022-11-11T16:51:37;101984.56;;;20.45;98.51
56040;BME280;43937;41.366;2.072;2022-11-11T16:58:16;101985.28;;;20.53;98.03
56040;BME280;43937;41.366;2.072;2022-11-11T17:06:55;101983.44;;;20.39;100.00
56040;BME280;43937;41.366;2.072;2022-11-11T17:09:33;101991.34;;;20.42;100.00
56040;BME280;43937;41.366;2.072;2022-11-11T17:14:04;101983.59;;;20.52;100.00
56040;BME280;43937;41.366;2.072;2022-11-11T17:20:25;101986.13;;;20.54;100.00
56040;BME280;43937;41.366;2.072;2022-11-11T17:24:09;101993.84;;;20.58;100.00
56040;BME280;43937;41.366;2.072;2022-11-11T17:32:38;101998.78;;;20.42;100.00
56040;BME280;43937;41.366;2.072;2022-11-11T17:35:04;102006.06;;;20.43;100.00
56040;BME280;43937;41.366;2.072;2022-11-11T17:37:47;102003.97;;;20.51;100.00
56040;BME280;43937;41.366;2.072;2022-11-11T17:43:03;102008.28;;;20.32;100.00
56040;BME280;43937;41.366;2.072;2022-11-11T17:47:18;102018.38;;;20.40;100.00
56040;BME280;43937;41.366;2.072;2022-11-11T17:49:44;102025.56;;;20.63;100.00
56040;BME280;43937;41.366;2.072;2022-11-11T17:52:10;102024.34;;;20.44;100.00
56040;BME280;43937;41.366;2.072;2022-11-11T17:54:35;102026.50;;;20.48;100.00
56040;BME280;43937;41.366;2.072;2022-11-11T17:59:12;102030.53;;;20.46;100.00
56040;BME280;43937;41.366;2.072;2022-11-11T18:02:32;102030.88;;;20.57;100.00
56040;BME280;43937;41.366;2.072;2022-11-11T18:04:58;102034.09;;;20.40;100.00
56040;BME280;43937;41.366;2.072;2022-11-11T18:16:20;102039.41;;;20.41;100.00
56040;BME280;43937;41.366;2.072;2022-11-11T18:22:14;102041.34;;;20.41;100.00
56040;BME280;43937;41.366;2.072;2022-11-11T18:25:19;102025.94;;;20.53;100.00
56040;BME280;43937;41.366;2.072;2022-11-11T18:27:44;102051.28;;;20.56;100.00
56040;BME280;43937;41.366;2.072;2022-11-11T18:34:02;102064.56;;;20.46;100.00
56040;BME280;43937;41.366;2.072;2022-11-11T18:36:28;102062.41;;;20.42;100.00
56040;BME280;43937;41.366;2.072;2022-11-11T18:41:54;102062.56;;;20.33;100.00
56040;BME280;43937;41.366;2.072;2022-11-11T18:46:26;102068.38;;;20.45;100.00
56040;BME280;43937;41.366;2.072;2022-11-11T18:50:39;102077.97;;;20.43;100.00
56040;BME280;43937;41.366;2.072;2022-11-11T18:58:14;102092.75;;;20.35;100.00
56040;BME280;43937;41.366;2.072;2022-11-11T19:00:39;102087.81;;;20.09;100.00
56040;BME280;43937;41.366;2.072;2022-11-11T19:08:01;102100.97;;;20.50;100.00
56040;BME280;43937;41.366;2.072;2022-11-11T19:10:49;102101.38;;;20.47;100.00
56040;BME280;43937;41.366;2.072;2022-11-11T19:22:10;102113.06;;;20.64;100.00
56040;BME280;43937;41.366;2.072;2022-11-11T19:29:00;102105.34;;;20.38;100.00
56040;BME280;43937;41.366;2.072;2022-11-11T19:34:00;102106.31;;;20.30;100.00
56040;BME280;43937;41.366;2.072;2022-11-11T19:37:15;102112.00;;;20.43;100.00
56040;BME280;43937;41.366;2.072;2022-11-11T19:44:53;102109.38;;;20.56;100.00
56040;BME280;43937;41.366;2.072;2022-11-11T19:50:10;102119.28;;;20.51;100.00
56040;BME280;43937;41.366;2.072;2022-11-11T19:58:28;102120.94;;;20.45;100.00
56040;BME280;43937;41.366;2.072;2022-11-11T20:03:50;102112.84;;;20.44;100.00
56040;BME280;43937;41.366;2.072;2022-11-11T20:06:31;102119.03;;;20.46;100.00
56040;BME280;43937;41.366;2.072;2022-11-11T20:10:05;102115.94;;;20.34;100.00
56040;BME280;43937;41.366;2.072;2022-11-11T20:12:31;102124.75;;;20.44;100.00
56040;BME280;43937;41.366;2.072;2022-11-11T20:16:52;102134.56;;;20.47;100.00
56040;BME280;43937;41.366;2.072;2022-11-11T20:19:18;102124.31;;;20.41;100.00
56040;BME280;43937;41.366;2.072;2022-11-11T20:26:22;102136.00;;;20.57;100.00
56040;BME280;43937;41.366;2.072;2022-11-11T20:31:04;102136.66;;;20.45;100.00
56040;BME280;43937;41.366;2.072;2022-11-11T20:33:52;102133.59;;;20.54;100.00
56040;BME280;43937;41.366;2.072;2022-11-11T20:38:02;102135.81;;;20.44;100.00
56040;BME280;43937;41.366;2.072;2022-11-11T20:41:48;102145.97;;;20.37;100.00
56040;BME280;43937;41.366;2.072;2022-11-11T20:44:13;102146.88;;;20.44;100.00
56040;BME280;43937;41.366;2.072;2022-11-11T20:46:38;102152.78;;;20.56;100.00
56040;BME280;43937;41.366;2.072;2022-11-11T20:50:48;102148.41;;;20.47;100.00
56040;BME280;43937;41.366;2.072;2022-11-11T20:57:00;102147.63;;;20.31;100.00
56040;BME280;43937;41.366;2.072;2022-11-11T21:06:53;102157.94;;;20.44;100.00
56040;BME280;43937;41.366;2.072;2022-11-11T21:10:56;102157.56;;;20.47;100.00
56040;BME280;43937;41.366;2.072;2022-11-11T21:14:14;102153.53;;;20.50;100.00
56040;BME280;43937;41.366;2.072;2022-11-11T21:16:40;102151.75;;;20.42;100.00
56040;BME280;43937;41.366;2.072;2022-11-11T21:19:05;102152.59;;;20.57;100.00
56040;BME280;43937;41.366;2.072;2022-11-11T21:26:07;102160.22;;;20.55;100.00
56040;BME280;43937;41.366;2.072;2022-11-11T21:28:35;102157.66;;;20.54;99.97
56040;BME280;43937;41.366;2.072;2022-11-11T21:34:03;102149.88;;;20.43;100.00
56040;BME280;43937;41.366;2.072;2022-11-11T21:43:39;102150.69;;;20.58;99.19
56040;BME280;43937;41.366;2.072;2022-11-11T21:46:50;102151.25;;;20.53;99.01
56040;BME280;43937;41.366;2.072;2022-11-11T21:50:40;102149.91;;;20.49;99.25
56040;BME280;43937;41.366;2.072;2022-11-11T21:54:36;102126.84;;;20.21;100.00
56040;BME280;43937;41.366;2.072;2022-11-11T21:57:03;102147.66;;;20.17;100.00
56040;BME280;43937;41.366;2.072;2022-11-11T22:02:40;102122.94;;;19.94;100.00
56040;BME280;43937;41.366;2.072;2022-11-11T22:06:06;102110.19;;;19.93;100.00
56040;BME280;43937;41.366;2.072;2022-11-11T22:10:05;102144.84;;;20.10;100.00
56040;BME280;43937;41.366;2.072;2022-11-11T22:12:31;102135.03;;;20.07;100.00
56040;BME280;43937;41.366;2.072;2022-11-11T22:15:35;102120.78;;;19.89;100.00
56040;BME280;43937;41.366;2.072;2022-11-11T22:18:03;102144.41;;;19.92;100.00
56040;BME280;43937;41.366;2.072;2022-11-11T22:20:28;102141.94;;;20.18;100.00
56040;BME280;43937;41.366;2.072;2022-11-11T22:22:53;102137.34;;;20.25;99.72
56040;BME280;43937;41.366;2.072;2022-11-11T22:27:21;102143.19;;;20.16;100.00
56040;BME280;43937;41.366;2.072;2022-11-11T22:38:27;102154.66;;;20.34;98.62
56040;BME280;43937;41.366;2.072;2022-11-11T22:40:53;102144.59;;;19.90;100.00
56040;BME280;43937;41.366;2.072;2022-11-11T22:43:19;102131.34;;;20.22;98.99
56040;BME280;43937;41.366;2.072;2022-11-11T22:47:37;102127.53;;;20.23;97.89
56040;BME280;43937;41.366;2.072;2022-11-11T23:00:04;102147.06;;;20.57;94.29
56040;BME280;43937;41.366;2.072;2022-11-11T23:06:37;102145.47;;;20.70;92.83
56040;BME280;43937;41.366;2.072;2022-11-11T23:09:52;102149.25;;;20.47;93.85
56040;BME280;43937;41.366;2.072;2022-11-11T23:12:17;102147.13;;;20.64;92.87
56040;BME280;43937;41.366;2.072;2022-11-11T23:14:42;102150.19;;;20.54;92.57
56040;BME280;43937;41.366;2.072;2022-11-11T23:22:15;102149.56;;;20.52;93.07
56040;BME280;43937;41.366;2.072;2022-11-11T23:24:41;102156.41;;;20.56;92.08
56040;BME280;43937;41.366;2.072;2022-11-11T23:27:06;102152.31;;;20.52;92.22
56040;BME280;43937;41.366;2.072;2022-11-11T23:29:32;102152.16;;;20.39;93.14
56040;BME280;43937;41.366;2.072;2022-11-11T23:35:15;102146.38;;;20.34;93.38
56040;BME280;43937;41.366;2.072;2022-11-11T23:37:41;102149.91;;;20.49;92.82
56040;BME280;43937;41.366;2.072;2022-11-11T23:41:05;102144.63;;;20.11;95.52
56040;BME280;43937;41.366;2.072;2022-11-11T23:43:31;102161.38;;;20.46;93.51
56040;BME280;43937;41.366;2.072;2022-11-11T23:45:57;102152.16;;;20.39;93.45
56040;BME280;43937;41.366;2.072;2022-11-11T23:49:46;102156.50;;;20.27;94.95
56040;BME280;43937;41.366;2.072;2022-11-11T23:53:49;102149.13;;;20.34;93.96
56040;BME280;43937;41.366;2.072;2022-11-11T23:56:15;102143.31;;;20.29;95.10
56040;BME280;43937;41.366;2.072;2022-11-11T23:58:40;102140.63;;;20.14;96.57
